createdAt,value
2022-12-18T00:01:26.163Z,17.50
2022-12-18T00:03:54.218Z,19.02
2022-12-18T00:06:21.726Z,16.27
2022-12-18T00:08:48.798Z,17.15
2022-12-18T00:11:20.960Z,18.35
2022-12-18T00:13:47.922Z,20.10
2022-12-18T00:16:18.045Z,18.85
2022-12-18T00:18:44.475Z,18.23
2022-12-18T00:21:12.435Z,17.15
2022-12-18T00:23:40.583Z,20.48
2022-12-18T00:26:11.350Z,20.77
2022-12-18T00:28:37.828Z,18.50
2022-12-18T00:31:08.756Z,16.98
2022-12-18T00:33:36.962Z,18.70
2022-12-18T00:36:05.810Z,19.48
2022-12-18T00:38:32.482Z,17.57
2022-12-18T00:40:59.269Z,14.30
2022-12-18T00:43:25.910Z,17.92
2022-12-18T00:45:52.351Z,18.63
2022-12-18T00:48:18.767Z,17.92
2022-12-18T00:50:45.506Z,15.63
2022-12-18T00:53:12.718Z,13.95
2022-12-18T00:55:40.839Z,14.63
2022-12-18T00:58:07.458Z,15.57
2022-12-18T01:00:33.904Z,16.30
2022-12-18T01:03:00.441Z,16.27
2022-12-18T01:05:27.308Z,14.60
2022-12-18T01:07:53.742Z,16.73
2022-12-18T01:10:20.373Z,15.50
2022-12-18T01:12:46.851Z,18.25
2022-12-18T01:15:15.574Z,17.30
2022-12-18T01:17:42.285Z,17.23
2022-12-18T01:20:10.208Z,15.95
2022-12-18T01:22:36.887Z,15.25
2022-12-18T01:25:05.196Z,16.08
2022-12-18T01:27:33.852Z,15.23
2022-12-18T01:30:00.263Z,16.10
2022-12-18T01:32:26.814Z,15.15
2022-12-18T01:34:53.097Z,16.70
2022-12-18T01:37:19.464Z,18.80
2022-12-18T01:39:45.870Z,14.23
2022-12-18T01:42:14.731Z,15.68
2022-12-18T01:44:59.708Z,15.05
2022-12-18T01:47:25.952Z,18.60
2022-12-18T01:49:53.045Z,15.60
2022-12-18T01:52:20.886Z,14.97
2022-12-18T01:54:49.683Z,13.10
2022-12-18T01:57:16.121Z,16.95
2022-12-18T01:59:46.128Z,13.80
2022-12-18T02:02:12.926Z,14.80
2022-12-18T02:04:47.802Z,17.93
2022-12-18T02:07:33.486Z,17.35
2022-12-18T02:10:07.490Z,15.55
2022-12-18T02:13:09.080Z,17.27
2022-12-18T02:16:02.174Z,15.40
2022-12-18T02:18:34.460Z,15.13
2022-12-18T02:21:41.408Z,14.18
2022-12-18T02:24:15.956Z,15.88
2022-12-18T02:26:56.680Z,14.73
2022-12-18T02:29:58.153Z,13.20
2022-12-18T02:32:28.570Z,15.33
2022-12-18T02:34:57.217Z,12.35
2022-12-18T02:37:25.895Z,15.55
2022-12-18T02:39:56.237Z,13.45
2022-12-18T02:42:23.544Z,15.65
2022-12-18T02:44:52.356Z,16.97
2022-12-18T02:47:22.772Z,15.23
2022-12-18T02:50:07.378Z,14.68
2022-12-18T02:52:54.525Z,18.77
2022-12-18T02:55:42.632Z,17.70
2022-12-18T02:58:33.431Z,15.93
2022-12-18T03:01:14.826Z,13.40
2022-12-18T03:03:55.822Z,13.20
2022-12-18T03:06:29.657Z,14.07
2022-12-18T03:09:03.219Z,14.57
2022-12-18T03:11:34.763Z,15.77
2022-12-18T03:14:01.519Z,14.27
2022-12-18T03:16:32.038Z,13.13
2022-12-18T03:19:19.249Z,12.30
2022-12-18T03:21:55.224Z,14.77
2022-12-18T03:24:23.566Z,14.17
2022-12-18T03:27:07.011Z,16.70
2022-12-18T03:29:58.889Z,13.05
2022-12-18T03:32:31.815Z,13.45
2022-12-18T03:35:04.032Z,14.48
2022-12-18T03:37:30.427Z,15.83
2022-12-18T03:39:56.870Z,17.70
2022-12-18T03:42:44.697Z,13.45
2022-12-18T03:45:27.275Z,13.88
2022-12-18T03:48:02.379Z,13.38
2022-12-18T03:50:37.794Z,13.63
2022-12-18T03:53:28.275Z,15.80
2022-12-18T03:55:56.259Z,16.90
2022-12-18T03:58:26.513Z,13.05
2022-12-18T04:00:56.779Z,14.07
2022-12-18T04:03:26.713Z,13.53
2022-12-18T04:05:56.262Z,13.52
2022-12-18T04:08:24.741Z,12.88
2022-12-18T04:10:51.050Z,13.27
2022-12-18T04:13:32.939Z,15.93
2022-12-18T04:15:59.293Z,14.73
2022-12-18T04:18:25.684Z,12.68
2022-12-18T04:20:52.244Z,12.95
2022-12-18T04:23:18.936Z,13.27
2022-12-18T04:25:45.978Z,14.82
2022-12-18T04:28:12.239Z,13.40
2022-12-18T04:30:38.547Z,15.32
2022-12-18T04:33:04.920Z,11.80
2022-12-18T04:35:31.308Z,12.20
2022-12-18T04:37:57.634Z,13.07
2022-12-18T04:40:23.987Z,12.70
2022-12-18T04:42:50.373Z,11.98
2022-12-18T04:45:16.921Z,11.45
2022-12-18T04:47:43.189Z,13.57
2022-12-18T04:50:09.909Z,12.48
2022-12-18T04:52:36.408Z,13.70
2022-12-18T04:55:02.943Z,12.40
2022-12-18T04:57:29.360Z,11.80
2022-12-18T04:59:55.787Z,13.02
2022-12-18T05:02:22.312Z,10.75
2022-12-18T05:04:48.857Z,11.27
2022-12-18T05:07:15.243Z,11.45
2022-12-18T05:09:41.665Z,10.73
2022-12-18T05:12:08.172Z,9.35
2022-12-18T05:14:34.590Z,13.02
2022-12-18T05:17:01.422Z,11.70
2022-12-18T05:19:27.927Z,10.65
2022-12-18T05:21:54.284Z,10.98
2022-12-18T05:24:20.727Z,11.30
2022-12-18T05:26:47.185Z,10.82
2022-12-18T05:29:13.535Z,11.07
2022-12-18T05:31:40.701Z,11.65
2022-12-18T05:34:08.598Z,11.32
2022-12-18T05:36:35.119Z,10.63
2022-12-18T05:39:01.607Z,10.02
2022-12-18T05:41:28.369Z,10.63
2022-12-18T05:43:54.697Z,10.20
2022-12-18T05:46:21.067Z,10.82
2022-12-18T05:48:47.938Z,11.15
2022-12-18T05:51:16.680Z,10.30
2022-12-18T05:53:43.826Z,10.77
2022-12-18T05:56:14.172Z,9.77
2022-12-18T05:58:40.920Z,11.88
2022-12-18T06:01:08.488Z,10.80
2022-12-18T06:03:35.112Z,9.38
2022-12-18T06:06:01.553Z,10.63
2022-12-18T06:08:28.107Z,10.70
2022-12-18T06:10:54.471Z,10.10
2022-12-18T06:13:21.811Z,10.27
2022-12-18T06:15:48.436Z,9.93
2022-12-18T06:18:14.825Z,9.67
2022-12-18T06:20:41.133Z,10.02
2022-12-18T06:23:07.669Z,9.30
2022-12-18T06:25:38.908Z,9.48
2022-12-18T06:28:05.438Z,9.25
2022-12-18T06:30:31.738Z,8.90
2022-12-18T06:32:58.057Z,9.55
2022-12-18T06:35:24.682Z,9.32
2022-12-18T06:37:51.026Z,8.55
2022-12-18T06:40:17.570Z,8.60
2022-12-18T06:42:43.920Z,9.30
2022-12-18T06:45:10.695Z,9.40
2022-12-18T06:47:37.062Z,8.27
2022-12-18T06:50:03.735Z,9.18
2022-12-18T06:52:32.821Z,9.02
2022-12-18T06:54:59.219Z,8.37
2022-12-18T06:57:25.573Z,9.70
2022-12-18T06:59:51.883Z,8.15
2022-12-18T07:02:18.360Z,8.02
2022-12-18T07:04:44.763Z,9.93
2022-12-18T07:07:11.165Z,8.37
2022-12-18T07:09:37.628Z,8.85
2022-12-18T07:12:04.138Z,8.25
2022-12-18T07:14:30.530Z,8.77
2022-12-18T07:16:56.891Z,7.40
2022-12-18T07:19:23.421Z,8.53
2022-12-18T07:21:51.711Z,8.00
2022-12-18T07:24:18.232Z,7.70
2022-12-18T07:26:47.031Z,7.15
2022-12-18T07:29:13.770Z,8.00
2022-12-18T07:31:40.240Z,8.77
2022-12-18T07:34:10.295Z,8.50
2022-12-18T07:36:36.572Z,6.93
2022-12-18T07:39:02.927Z,7.22
2022-12-18T07:41:29.239Z,7.57
2022-12-18T07:43:55.554Z,8.50
2022-12-18T07:46:22.198Z,8.65
2022-12-18T07:48:49.713Z,7.50
2022-12-18T07:51:17.556Z,7.57
2022-12-18T07:53:44.942Z,8.05
2022-12-18T07:56:32.401Z,8.23
2022-12-18T07:58:59.867Z,6.57
2022-12-18T08:01:26.792Z,6.97
2022-12-18T08:03:53.548Z,7.18
2022-12-18T08:06:24.334Z,9.98
2022-12-18T08:08:55.243Z,9.07
2022-12-18T08:11:22.626Z,6.63
2022-12-18T08:13:49.427Z,8.35
2022-12-18T08:16:16.549Z,8.00
2022-12-18T08:18:42.958Z,7.13
2022-12-18T08:21:17.670Z,7.33
2022-12-18T08:23:44.664Z,6.82
2022-12-18T08:26:12.388Z,7.10
2022-12-18T08:28:38.761Z,7.95
2022-12-18T08:31:05.370Z,8.25
2022-12-18T08:33:32.373Z,7.80
2022-12-18T08:36:03.181Z,8.30
2022-12-18T08:38:29.501Z,8.30
2022-12-18T08:41:03.658Z,8.00
2022-12-18T08:43:30.073Z,8.05
2022-12-18T08:45:56.681Z,6.63
2022-12-18T08:48:23.011Z,7.07
2022-12-18T08:50:59.119Z,8.32
2022-12-18T08:53:25.908Z,8.48
2022-12-18T08:55:52.758Z,7.32
2022-12-18T08:58:19.301Z,8.30
2022-12-18T09:00:45.764Z,7.82
2022-12-18T09:03:16.977Z,6.90
2022-12-18T09:05:43.932Z,7.90
2022-12-18T09:08:10.413Z,8.48
2022-12-18T09:10:44.080Z,8.70
2022-12-18T09:13:11.689Z,7.25
2022-12-18T09:15:49.775Z,8.65
2022-12-18T09:18:17.649Z,9.30
2022-12-18T09:20:45.127Z,6.43
2022-12-18T09:23:12.511Z,8.63
2022-12-18T09:25:39.284Z,7.32
2022-12-18T09:28:17.793Z,8.70
2022-12-18T09:30:49.107Z,7.75
2022-12-18T09:33:16.418Z,8.00
2022-12-18T09:35:44.665Z,9.70
2022-12-18T09:38:13.986Z,7.85
2022-12-18T09:40:57.873Z,7.05
2022-12-18T09:43:30.914Z,7.75
2022-12-18T09:46:05.890Z,8.85
2022-12-18T09:48:38.028Z,7.77
2022-12-18T09:51:34.781Z,7.72
2022-12-18T09:54:05.914Z,7.97
2022-12-18T09:56:36.947Z,7.22
2022-12-18T09:59:05.410Z,8.25
2022-12-18T10:01:41.551Z,8.03
2022-12-18T10:04:10.849Z,8.13
2022-12-18T10:07:03.122Z,8.20
2022-12-18T10:10:03.925Z,9.32
2022-12-18T10:12:50.036Z,10.50
2022-12-18T10:16:00.270Z,9.03
2022-12-18T10:18:43.661Z,8.57
2022-12-18T10:21:19.335Z,9.32
2022-12-18T10:23:48.323Z,9.55
2022-12-18T10:26:15.354Z,8.63
2022-12-18T10:28:43.760Z,10.20
2022-12-18T10:31:17.926Z,7.63
2022-12-18T10:33:44.643Z,10.00
2022-12-18T10:36:10.982Z,8.05
2022-12-18T10:38:38.242Z,8.32
2022-12-18T10:41:07.955Z,7.63
2022-12-18T10:43:37.762Z,7.10
2022-12-18T10:46:10.299Z,8.05
2022-12-18T10:48:48.543Z,7.78
2022-12-18T10:51:35.189Z,7.88
2022-12-18T10:54:06.255Z,6.90
2022-12-18T10:56:36.440Z,8.05
2022-12-18T10:59:05.968Z,7.63
2022-12-18T11:01:48.906Z,8.88
2022-12-18T11:04:33.565Z,8.25
2022-12-18T11:07:05.942Z,8.00
2022-12-18T11:09:37.461Z,6.78
2022-12-18T11:12:15.258Z,7.45
2022-12-18T11:14:53.050Z,7.22
2022-12-18T11:17:26.857Z,6.85
2022-12-18T11:20:01.989Z,7.67
2022-12-18T11:22:34.273Z,7.50
2022-12-18T11:25:32.637Z,6.20
2022-12-18T11:28:02.273Z,8.10
2022-12-18T11:30:35.215Z,8.63
2022-12-18T11:33:21.344Z,8.27
2022-12-18T11:35:55.673Z,7.32
2022-12-18T11:38:25.586Z,8.63
2022-12-18T11:41:19.705Z,7.85
2022-12-18T11:44:04.379Z,8.90
2022-12-18T11:46:38.828Z,6.80
2022-12-18T11:49:23.212Z,7.70
2022-12-18T11:51:56.653Z,8.77
2022-12-18T11:54:23.076Z,7.93
2022-12-18T11:56:56.943Z,7.60
2022-12-18T11:59:33.987Z,7.67
2022-12-18T12:02:03.197Z,9.25
2022-12-18T12:04:39.824Z,8.18
2022-12-18T12:07:24.814Z,8.55
2022-12-18T12:10:11.374Z,7.18
2022-12-18T12:12:49.124Z,8.03
2022-12-18T12:15:35.230Z,8.40
2022-12-18T12:18:23.722Z,6.40
2022-12-18T12:21:17.590Z,7.90
2022-12-18T12:23:59.198Z,7.13
2022-12-18T12:26:36.741Z,8.10
2022-12-18T12:29:21.113Z,7.88
2022-12-18T12:32:03.908Z,8.65
2022-12-18T12:34:39.263Z,9.00
2022-12-18T12:37:05.545Z,8.13
2022-12-18T12:39:37.453Z,9.10
2022-12-18T12:42:16.263Z,7.32
2022-12-18T12:44:59.481Z,8.10
2022-12-18T12:47:34.540Z,7.57
2022-12-18T12:50:07.954Z,8.73
2022-12-18T12:52:46.073Z,8.50
2022-12-18T12:55:21.515Z,8.82
2022-12-18T12:58:32.280Z,7.68
2022-12-18T13:01:42.995Z,6.93
2022-12-18T13:04:31.897Z,7.90
2022-12-18T13:07:04.833Z,8.07
2022-12-18T13:12:21.459Z,7.97
2022-12-18T13:13:45.029Z,7.75
2022-12-18T13:14:48.247Z,7.43
2022-12-18T13:17:15.434Z,8.40
2022-12-18T13:19:42.561Z,7.90
2022-12-18T13:22:35.913Z,8.05
2022-12-18T13:25:03.617Z,8.07
2022-12-18T13:27:45.306Z,8.38
2022-12-18T13:30:33.435Z,8.45
2022-12-18T13:33:15.250Z,7.67
2022-12-18T13:35:57.461Z,7.75
2022-12-18T13:38:26.749Z,8.75
2022-12-18T13:41:01.317Z,8.02
2022-12-18T13:43:44.189Z,8.75
2022-12-18T13:46:31.723Z,10.47
2022-12-18T13:49:06.976Z,11.63
2022-12-18T13:51:35.228Z,9.18
2022-12-18T13:54:07.065Z,12.10
2022-12-18T13:56:34.404Z,8.30
2022-12-18T13:59:25.171Z,10.47
2022-12-18T14:01:53.917Z,8.00
2022-12-18T14:04:25.032Z,8.13
2022-12-18T14:06:56.031Z,7.97
2022-12-18T14:09:34.829Z,9.30
2022-12-18T14:12:03.803Z,8.70
2022-12-18T14:14:33.816Z,8.43
2022-12-18T14:17:01.679Z,8.40
2022-12-18T14:19:28.817Z,8.93
2022-12-18T14:21:55.320Z,9.10
2022-12-18T14:24:22.854Z,8.77
2022-12-18T14:26:50.976Z,8.82
2022-12-18T14:29:26.666Z,9.95
2022-12-18T14:32:18.338Z,10.38
2022-12-18T14:34:54.620Z,8.02
2022-12-18T14:37:24.619Z,8.90
2022-12-18T14:39:59.400Z,9.60
2022-12-18T14:42:27.842Z,10.30
2022-12-18T14:45:41.676Z,8.38
2022-12-18T14:48:37.076Z,8.60
2022-12-18T14:51:27.890Z,9.63
2022-12-18T14:53:57.205Z,8.38
2022-12-18T14:56:27.174Z,8.60
2022-12-18T14:59:02.071Z,8.00
2022-12-18T15:01:33.922Z,9.00
2022-12-18T15:04:01.746Z,8.43
2022-12-18T15:06:38.977Z,8.70
2022-12-18T15:09:26.573Z,8.45
2022-12-18T15:12:01.164Z,10.48
2022-12-18T15:14:40.522Z,9.05
2022-12-18T15:17:27.288Z,9.13
2022-12-18T15:20:00.877Z,8.93
2022-12-18T15:22:29.395Z,7.97
2022-12-18T15:24:57.372Z,10.05
2022-12-18T15:27:34.528Z,8.90
2022-12-18T15:30:03.715Z,8.37
2022-12-18T15:32:30.021Z,9.18
2022-12-18T15:35:25.217Z,9.02
2022-12-18T15:37:52.825Z,8.20
2022-12-18T15:40:22.052Z,8.38
2022-12-18T15:42:49.260Z,8.77
2022-12-18T15:45:15.938Z,8.55
2022-12-18T15:47:42.450Z,8.65
2022-12-18T15:50:09.583Z,8.90
2022-12-18T15:52:42.579Z,8.77
2022-12-18T15:55:24.146Z,10.53
2022-12-18T15:57:50.535Z,9.40
2022-12-18T16:00:17.177Z,10.00
2022-12-18T16:02:43.783Z,9.02
2022-12-18T16:05:16.790Z,8.55
2022-12-18T16:07:43.403Z,9.50
2022-12-18T16:10:10.317Z,9.65
2022-12-18T16:12:37.379Z,10.55
2022-12-18T16:15:05.396Z,9.10
2022-12-18T16:17:32.586Z,10.18
2022-12-18T16:19:59.196Z,10.70
2022-12-18T16:22:30.252Z,8.90
2022-12-18T16:24:57.845Z,9.77
2022-12-18T16:27:25.617Z,10.60
2022-12-18T16:29:51.986Z,9.07
2022-12-18T16:32:21.649Z,10.90
2022-12-18T16:34:48.150Z,10.02
2022-12-18T16:37:16.392Z,10.43
2022-12-18T16:39:43.119Z,9.48
2022-12-18T16:42:16.792Z,10.73
2022-12-18T16:44:44.648Z,9.00
2022-12-18T16:47:11.096Z,9.93
2022-12-18T16:49:40.659Z,10.13
2022-12-18T16:52:07.419Z,9.95
2022-12-18T16:54:34.189Z,11.27
2022-12-18T16:57:00.952Z,10.47
2022-12-18T16:59:27.780Z,9.50
2022-12-18T17:01:54.958Z,8.98
2022-12-18T17:04:21.376Z,10.07
2022-12-18T17:06:47.761Z,10.75
2022-12-18T17:09:15.701Z,9.27
2022-12-18T17:11:42.800Z,10.77
2022-12-18T17:14:20.537Z,12.10
2022-12-18T17:16:47.221Z,11.50
2022-12-18T17:19:17.265Z,12.02
2022-12-18T17:21:47.390Z,12.80
2022-12-18T17:24:13.772Z,12.13
2022-12-18T17:26:40.178Z,11.60
2022-12-18T17:29:06.601Z,10.63
2022-12-18T17:31:33.667Z,11.05
2022-12-18T17:34:02.121Z,11.00
2022-12-18T17:36:28.888Z,11.07
2022-12-18T17:38:57.644Z,9.38
2022-12-18T17:41:24.793Z,11.75
2022-12-18T17:43:52.547Z,13.45
2022-12-18T17:46:19.585Z,11.17
2022-12-18T17:48:46.597Z,10.20
2022-12-18T17:51:13.878Z,11.70
2022-12-18T17:53:41.045Z,12.88
2022-12-18T17:56:09.915Z,13.45
2022-12-18T17:58:37.003Z,11.57
2022-12-18T18:01:04.258Z,9.05
2022-12-18T18:03:32.226Z,11.45
2022-12-18T18:06:00.383Z,9.13
2022-12-18T18:08:28.069Z,11.27
2022-12-18T18:10:55.701Z,13.60
2022-12-18T18:13:25.720Z,14.07
2022-12-18T18:15:57.076Z,12.48
2022-12-18T18:18:24.095Z,10.93
2022-12-18T18:20:51.169Z,13.27
2022-12-18T18:23:20.214Z,10.40
2022-12-18T18:25:46.697Z,11.23
2022-12-18T18:28:13.124Z,11.65
2022-12-18T18:30:39.668Z,12.18
2022-12-18T18:33:11.678Z,11.75
2022-12-18T18:35:53.932Z,11.57
2022-12-18T18:38:20.954Z,11.82
2022-12-18T18:40:47.246Z,10.85
2022-12-18T18:43:13.545Z,9.73
2022-12-18T18:45:39.979Z,9.07
2022-12-18T18:48:08.143Z,10.87
2022-12-18T18:50:34.427Z,12.23
2022-12-18T18:53:00.758Z,10.88
2022-12-18T18:55:27.050Z,12.05
2022-12-18T18:57:53.331Z,12.15
2022-12-18T19:00:19.653Z,12.93
2022-12-18T19:02:46.278Z,12.30
2022-12-18T19:05:12.652Z,9.10
2022-12-18T19:07:39.310Z,12.48
2022-12-18T19:10:06.346Z,10.75
2022-12-18T19:12:34.421Z,12.33
2022-12-18T19:15:03.379Z,12.70
2022-12-18T19:17:30.722Z,12.70
2022-12-18T19:19:57.937Z,12.63
2022-12-18T19:22:24.286Z,11.70
2022-12-18T19:24:50.608Z,11.00
2022-12-18T19:27:16.929Z,11.95
2022-12-18T19:29:43.214Z,12.48
2022-12-18T19:32:11.034Z,12.98
2022-12-18T19:34:38.746Z,11.10
2022-12-18T19:37:05.357Z,13.07
2022-12-18T19:39:31.845Z,11.75
2022-12-18T19:41:58.215Z,13.13
2022-12-18T19:44:24.620Z,12.40
2022-12-18T19:46:51.033Z,13.38
2022-12-18T19:49:18.183Z,14.43
2022-12-18T19:51:45.108Z,14.60
2022-12-18T19:54:16.393Z,13.80
2022-12-18T19:56:43.895Z,15.68
2022-12-18T19:59:10.308Z,13.55
2022-12-18T20:01:36.830Z,11.23
2022-12-18T20:04:03.450Z,15.73
2022-12-18T20:06:33.746Z,15.25
2022-12-18T20:09:04.517Z,19.17
2022-12-18T20:11:32.587Z,13.43
2022-12-18T20:14:02.192Z,16.03
2022-12-18T20:16:28.998Z,16.60
2022-12-18T20:18:55.900Z,15.40
2022-12-18T20:21:22.261Z,16.13
2022-12-18T20:23:48.678Z,16.80
2022-12-18T20:26:15.239Z,15.43
2022-12-18T20:28:41.876Z,16.75
2022-12-18T20:31:10.447Z,15.05
2022-12-18T20:33:40.608Z,15.15
2022-12-18T20:36:10.594Z,13.38
2022-12-18T20:38:37.216Z,17.50
2022-12-18T20:41:07.425Z,14.48
2022-12-18T20:43:33.872Z,16.88
2022-12-18T20:46:01.904Z,14.88
2022-12-18T20:48:28.801Z,11.63
2022-12-18T20:51:03.984Z,18.67
2022-12-18T20:53:30.642Z,15.30
2022-12-18T20:55:57.001Z,14.18
2022-12-18T20:58:23.604Z,17.40
2022-12-18T21:00:50.222Z,16.95
2022-12-18T21:03:16.779Z,15.03
2022-12-18T21:05:43.126Z,15.50
2022-12-18T21:08:09.693Z,15.20
2022-12-18T21:10:37.920Z,15.73
2022-12-18T21:13:06.089Z,19.13
2022-12-18T21:15:34.193Z,15.23
2022-12-18T21:18:00.699Z,20.02
2022-12-18T21:20:27.391Z,15.57
2022-12-18T21:22:54.877Z,15.10
2022-12-18T21:25:23.710Z,19.85
2022-12-18T21:27:50.025Z,18.07
2022-12-18T21:30:17.122Z,17.20
2022-12-18T21:32:43.586Z,13.68
2022-12-18T21:35:11.042Z,16.10
2022-12-18T21:37:37.402Z,15.40
2022-12-18T21:40:04.869Z,16.40
2022-12-18T21:42:31.148Z,19.23
2022-12-18T21:44:57.754Z,19.38
2022-12-18T21:47:24.028Z,19.17
2022-12-18T21:49:53.203Z,20.60
2022-12-18T21:52:31.347Z,17.97
2022-12-18T21:55:00.729Z,17.90
2022-12-18T21:57:33.822Z,19.40
2022-12-18T22:00:00.126Z,20.13
2022-12-18T22:02:26.718Z,19.55
2022-12-18T22:04:53.223Z,22.10
2022-12-18T22:07:20.408Z,18.30
2022-12-18T22:09:48.917Z,19.73
2022-12-18T22:12:15.238Z,18.00
2022-12-18T22:14:41.512Z,21.80
2022-12-18T22:17:07.811Z,23.67
2022-12-18T22:19:39.494Z,20.88
2022-12-18T22:22:08.943Z,15.48
2022-12-18T22:24:35.361Z,16.98
2022-12-18T22:27:02.580Z,21.88
2022-12-18T22:29:29.308Z,18.87
2022-12-18T22:31:57.343Z,20.40
2022-12-18T22:34:23.621Z,20.67
2022-12-18T22:36:50.551Z,26.42
2022-12-18T22:39:21.076Z,23.60
2022-12-18T22:41:48.166Z,18.00
2022-12-18T22:44:15.215Z,23.17
2022-12-18T22:46:56.241Z,21.08
2022-12-18T22:49:34.908Z,24.67
2022-12-18T22:52:02.697Z,19.70
2022-12-18T22:54:28.992Z,22.47
2022-12-18T22:56:55.327Z,20.98
2022-12-18T22:59:22.860Z,27.48
2022-12-18T23:01:50.628Z,24.52
2022-12-18T23:04:20.524Z,25.10
2022-12-18T23:06:47.446Z,23.50
2022-12-18T23:09:19.241Z,23.92
2022-12-18T23:11:46.416Z,28.90
2022-12-18T23:14:13.175Z,20.05
2022-12-18T23:16:39.658Z,28.33
2022-12-18T23:19:06.042Z,23.83
2022-12-18T23:21:32.462Z,28.38
2022-12-18T23:24:00.368Z,24.02
2022-12-18T23:26:27.283Z,24.80
2022-12-18T23:28:54.068Z,23.70
2022-12-18T23:31:26.042Z,24.43
2022-12-18T23:33:53.689Z,23.58
2022-12-18T23:36:20.880Z,24.15
2022-12-18T23:38:49.553Z,23.98
2022-12-18T23:41:17.486Z,25.15
2022-12-18T23:43:43.822Z,27.80
2022-12-18T23:46:20.239Z,35.10
2022-12-18T23:48:47.202Z,35.55
2022-12-18T23:51:15.784Z,34.63
2022-12-18T23:53:42.590Z,26.02
2022-12-18T23:56:11.177Z,33.43
2022-12-18T23:58:38.493Z,32.58
